sensor_id;sensor_type;location;lat;lon;timestamp;pressure;altitude;pressure_sealevel;temperature;humidity
70589;BME280;58152;49.202;18.744;2022-12-05T00:02:04;97649.94;;;5.67;70.84
70589;BME280;58152;49.202;18.744;2022-12-05T00:04:29;97647.34;;;5.69;70.91
70589;BME280;58152;49.202;18.744;2022-12-05T00:06:55;97661.09;;;5.74;70.67
70589;BME280;58152;49.202;18.744;2022-12-05T00:09:20;97652.44;;;5.72;70.67
70589;BME280;58152;49.202;18.744;2022-12-05T00:11:45;97657.56;;;5.78;71.16
70589;BME280;58152;49.202;18.744;2022-12-05T00:14:12;97651.50;;;5.77;70.72
70589;BME280;58152;49.202;18.744;2022-12-05T00:16:39;97652.25;;;5.81;71.03
70589;BME280;58152;49.202;18.744;2022-12-05T00:19:06;97664.41;;;5.82;70.87
70589;BME280;58152;49.202;18.744;2022-12-05T00:21:36;97666.13;;;5.83;70.59
70589;BME280;58152;49.202;18.744;2022-12-05T00:24:04;97662.56;;;5.85;70.52
70589;BME280;58152;49.202;18.744;2022-12-05T00:26:30;97663.50;;;5.83;70.71
70589;BME280;58152;49.202;18.744;2022-12-05T00:28:57;97665.22;;;5.84;70.54
70589;BME280;58152;49.202;18.744;2022-12-05T00:31:23;97664.28;;;5.88;70.58
70589;BME280;58152;49.202;18.744;2022-12-05T00:33:50;97661.66;;;5.88;70.63
70589;BME280;58152;49.202;18.744;2022-12-05T00:36:24;97655.56;;;5.89;70.87
70589;BME280;58152;49.202;18.744;2022-12-05T00:38:50;97652.16;;;5.87;70.45
70589;BME280;58152;49.202;18.744;2022-12-05T00:41:21;97659.88;;;5.92;70.44
70589;BME280;58152;49.202;18.744;2022-12-05T00:43:48;97646.88;;;5.92;70.12
70589;BME280;58152;49.202;18.744;2022-12-05T00:46:17;97640.78;;;5.91;70.43
70589;BME280;58152;49.202;18.744;2022-12-05T00:48:44;97645.13;;;5.89;70.49
70589;BME280;58152;49.202;18.744;2022-12-05T00:51:14;97635.56;;;5.93;70.20
70589;BME280;58152;49.202;18.744;2022-12-05T00:53:41;97644.25;;;5.92;70.44
70589;BME280;58152;49.202;18.744;2022-12-05T00:56:17;97639.97;;;5.88;70.34
70589;BME280;58152;49.202;18.744;2022-12-05T00:58:44;97640.00;;;5.86;70.58
70589;BME280;58152;49.202;18.744;2022-12-05T01:03:38;97647.69;;;5.91;70.87
70589;BME280;58152;49.202;18.744;2022-12-05T01:06:03;97637.38;;;5.88;70.69
70589;BME280;58152;49.202;18.744;2022-12-05T01:08:30;97626.91;;;5.89;70.59
70589;BME280;58152;49.202;18.744;2022-12-05T01:10:57;97630.41;;;5.88;70.53
70589;BME280;58152;49.202;18.744;2022-12-05T01:13:24;97624.25;;;5.91;70.38
70589;BME280;58152;49.202;18.744;2022-12-05T01:15:51;97613.84;;;5.91;70.36
70589;BME280;58152;49.202;18.744;2022-12-05T01:18:17;97610.31;;;5.95;70.76
70589;BME280;58152;49.202;18.744;2022-12-05T01:20:43;97610.22;;;5.99;70.46
70589;BME280;58152;49.202;18.744;2022-12-05T01:23:09;97608.44;;;6.01;70.72
70589;BME280;58152;49.202;18.744;2022-12-05T01:25:39;97585.91;;;5.99;70.81
70589;BME280;58152;49.202;18.744;2022-12-05T01:28:07;97588.47;;;6.02;70.11
70589;BME280;58152;49.202;18.744;2022-12-05T01:30:40;97593.59;;;6.05;70.38
70589;BME280;58152;49.202;18.744;2022-12-05T01:33:09;97592.81;;;6.01;70.29
70589;BME280;58152;49.202;18.744;2022-12-05T01:35:38;97590.13;;;6.04;70.32
70589;BME280;58152;49.202;18.744;2022-12-05T01:38:04;97581.44;;;6.05;70.06
70589;BME280;58152;49.202;18.744;2022-12-05T01:40:32;97571.88;;;6.06;70.50
70589;BME280;58152;49.202;18.744;2022-12-05T01:42:58;97579.69;;;6.06;69.93
70589;BME280;58152;49.202;18.744;2022-12-05T01:45:36;97592.56;;;6.12;70.09
70589;BME280;58152;49.202;18.744;2022-12-05T01:48:17;97602.06;;;6.13;70.38
70589;BME280;58152;49.202;18.744;2022-12-05T01:50:44;97598.63;;;6.13;70.28
70589;BME280;58152;49.202;18.744;2022-12-05T01:53:10;97617.72;;;6.13;70.33
70589;BME280;58152;49.202;18.744;2022-12-05T01:55:37;97609.94;;;6.11;70.17
70589;BME280;58152;49.202;18.744;2022-12-05T01:58:04;97615.09;;;6.15;69.80
70589;BME280;58152;49.202;18.744;2022-12-05T02:00:30;97618.50;;;6.17;70.06
70589;BME280;58152;49.202;18.744;2022-12-05T02:02:59;97618.56;;;6.14;70.32
70589;BME280;58152;49.202;18.744;2022-12-05T02:05:29;97626.38;;;6.14;69.88
70589;BME280;58152;49.202;18.744;2022-12-05T02:07:57;97645.41;;;6.17;69.94
70589;BME280;58152;49.202;18.744;2022-12-05T02:10:23;97633.28;;;6.16;70.02
70589;BME280;58152;49.202;18.744;2022-12-05T02:12:50;97634.19;;;6.15;70.02
70589;BME280;58152;49.202;18.744;2022-12-05T02:21:34;97635.88;;;6.16;69.90
70589;BME280;58152;49.202;18.744;2022-12-05T02:26:37;97628.88;;;6.18;69.90
70589;BME280;58152;49.202;18.744;2022-12-05T02:32:58;97626.31;;;6.17;70.36
70589;BME280;58152;49.202;18.744;2022-12-05T02:38:24;97630.63;;;6.18;70.28
70589;BME280;58152;49.202;18.744;2022-12-05T02:43:26;97632.47;;;6.14;70.45
70589;BME280;58152;49.202;18.744;2022-12-05T02:45:58;97628.97;;;6.14;70.35
70589;BME280;58152;49.202;18.744;2022-12-05T02:48:27;97634.25;;;6.12;70.43
70589;BME280;58152;49.202;18.744;2022-12-05T02:50:54;97643.81;;;6.11;70.47
70589;BME280;58152;49.202;18.744;2022-12-05T02:53:23;97632.56;;;6.09;70.37
70589;BME280;58152;49.202;18.744;2022-12-05T02:55:50;97631.63;;;6.12;70.15
70589;BME280;58152;49.202;18.744;2022-12-05T02:58:22;97625.56;;;6.11;70.33
70589;BME280;58152;49.202;18.744;2022-12-05T03:00:54;97620.31;;;6.13;70.65
70589;BME280;58152;49.202;18.744;2022-12-05T03:03:21;97613.44;;;6.10;70.57
70589;BME280;58152;49.202;18.744;2022-12-05T03:06:07;97618.56;;;6.14;70.45
70589;BME280;58152;49.202;18.744;2022-12-05T03:08:46;97621.09;;;6.17;70.38
70589;BME280;58152;49.202;18.744;2022-12-05T03:11:13;97614.19;;;6.16;70.74
70589;BME280;58152;49.202;18.744;2022-12-05T03:13:55;97612.53;;;6.11;70.40
70589;BME280;58152;49.202;18.744;2022-12-05T03:16:26;97615.16;;;6.11;70.42
70589;BME280;58152;49.202;18.744;2022-12-05T03:18:57;97628.13;;;6.15;70.79
70589;BME280;58152;49.202;18.744;2022-12-05T03:21:30;97622.00;;;6.16;70.29
70589;BME280;58152;49.202;18.744;2022-12-05T03:24:07;97633.22;;;6.19;70.36
70589;BME280;58152;49.202;18.744;2022-12-05T03:29:42;97626.22;;;6.21;70.81
70589;BME280;58152;49.202;18.744;2022-12-05T03:35:36;97610.56;;;6.21;70.44
70589;BME280;58152;49.202;18.744;2022-12-05T03:41:07;97625.25;;;6.25;70.08
70589;BME280;58152;49.202;18.744;2022-12-05T03:43:53;97611.44;;;6.22;70.48
70589;BME280;58152;49.202;18.744;2022-12-05T03:46:31;97602.81;;;6.18;70.35
70589;BME280;58152;49.202;18.744;2022-12-05T03:49:55;97607.97;;;6.21;70.16
70589;BME280;58152;49.202;18.744;2022-12-05T03:54:44;97612.38;;;6.19;70.53
70589;BME280;58152;49.202;18.744;2022-12-05T03:57:18;97608.81;;;6.22;70.55
70589;BME280;58152;49.202;18.744;2022-12-05T04:03:02;97620.94;;;6.24;70.44
70589;BME280;58152;49.202;18.744;2022-12-05T04:08:17;97620.84;;;6.27;70.60
70589;BME280;58152;49.202;18.744;2022-12-05T04:10:46;97617.28;;;6.31;70.33
70589;BME280;58152;49.202;18.744;2022-12-05T04:13:29;97623.44;;;6.29;70.37
70589;BME280;58152;49.202;18.744;2022-12-05T04:16:12;97635.44;;;6.34;69.90
70589;BME280;58152;49.202;18.744;2022-12-05T04:19:12;97629.44;;;6.32;70.20
70589;BME280;58152;49.202;18.744;2022-12-05T04:21:43;97630.22;;;6.34;70.36
70589;BME280;58152;49.202;18.744;2022-12-05T04:24:16;97616.31;;;6.35;70.45
70589;BME280;58152;49.202;18.744;2022-12-05T04:27:41;97619.75;;;6.36;69.90
70589;BME280;58152;49.202;18.744;2022-12-05T04:30:24;97615.44;;;6.35;70.21
70589;BME280;58152;49.202;18.744;2022-12-05T04:35:39;97612.00;;;6.34;69.85
70589;BME280;58152;49.202;18.744;2022-12-05T04:38:10;97606.84;;;6.31;70.13
70589;BME280;58152;49.202;18.744;2022-12-05T04:41:03;97613.75;;;6.34;70.19
70589;BME280;58152;49.202;18.744;2022-12-05T04:43:29;97605.13;;;6.30;70.16
70589;BME280;58152;49.202;18.744;2022-12-05T04:45:57;97616.31;;;6.35;70.37
70589;BME280;58152;49.202;18.744;2022-12-05T04:48:26;97611.22;;;6.31;70.39
70589;BME280;58152;49.202;18.744;2022-12-05T04:50:52;97606.84;;;6.31;70.60
70589;BME280;58152;49.202;18.744;2022-12-05T04:53:21;97610.28;;;6.33;70.32
70589;BME280;58152;49.202;18.744;2022-12-05T04:55:51;97606.84;;;6.31;70.34
70589;BME280;58152;49.202;18.744;2022-12-05T04:58:21;97608.59;;;6.32;70.91
70589;BME280;58152;49.202;18.744;2022-12-05T05:01:08;97601.69;;;6.30;70.33
70589;BME280;58152;49.202;18.744;2022-12-05T05:06:12;97599.06;;;6.30;70.84
70589;BME280;58152;49.202;18.744;2022-12-05T05:08:50;97594.72;;;6.30;70.62
70589;BME280;58152;49.202;18.744;2022-12-05T05:11:22;97593.81;;;6.31;70.47
70589;BME280;58152;49.202;18.744;2022-12-05T05:13:48;97597.38;;;6.29;70.49
70589;BME280;58152;49.202;18.744;2022-12-05T05:16:18;97606.03;;;6.29;70.60
70589;BME280;58152;49.202;18.744;2022-12-05T05:18:45;97590.53;;;6.25;70.62
70589;BME280;58152;49.202;18.744;2022-12-05T05:21:18;97599.94;;;6.30;70.64
70589;BME280;58152;49.202;18.744;2022-12-05T05:23:44;97602.53;;;6.30;70.42
70589;BME280;58152;49.202;18.744;2022-12-05T05:26:09;97601.69;;;6.30;70.46
70589;BME280;58152;49.202;18.744;2022-12-05T05:28:35;97597.31;;;6.30;70.43
70589;BME280;58152;49.202;18.744;2022-12-05T05:31:01;97600.81;;;6.29;70.79
70589;BME280;58152;49.202;18.744;2022-12-05T05:33:27;97587.81;;;6.29;70.88
70589;BME280;58152;49.202;18.744;2022-12-05T05:35:56;97585.25;;;6.28;70.78
70589;BME280;58152;49.202;18.744;2022-12-05T05:38:22;97604.28;;;6.30;70.69
70589;BME280;58152;49.202;18.744;2022-12-05T05:40:47;97596.53;;;6.28;70.86
70589;BME280;58152;49.202;18.744;2022-12-05T05:43:13;97604.28;;;6.30;71.19
70589;BME280;58152;49.202;18.744;2022-12-05T05:45:38;97595.66;;;6.28;70.94
70589;BME280;58152;49.202;18.744;2022-12-05T05:48:04;97594.81;;;6.26;70.90
70589;BME280;58152;49.202;18.744;2022-12-05T05:50:30;97600.88;;;6.28;71.02
70589;BME280;58152;49.202;18.744;2022-12-05T05:52:55;97611.22;;;6.31;70.77
70589;BME280;58152;49.202;18.744;2022-12-05T05:55:21;97594.91;;;6.23;71.04
70589;BME280;58152;49.202;18.744;2022-12-05T05:57:46;97600.81;;;6.29;70.78
70589;BME280;58152;49.202;18.744;2022-12-05T06:00:12;97595.78;;;6.23;71.08
70589;BME280;58152;49.202;18.744;2022-12-05T06:02:38;97610.41;;;6.29;70.90
70589;BME280;58152;49.202;18.744;2022-12-05T06:05:04;97597.44;;;6.26;70.54
70589;BME280;58152;49.202;18.744;2022-12-05T06:07:29;97593.06;;;6.26;70.65
70589;BME280;58152;49.202;18.744;2022-12-05T06:09:55;97611.31;;;6.28;70.95
70589;BME280;58152;49.202;18.744;2022-12-05T06:12:21;97616.41;;;6.31;70.68
70589;BME280;58152;49.202;18.744;2022-12-05T06:14:47;97613.06;;;6.26;71.02
70589;BME280;58152;49.202;18.744;2022-12-05T06:17:13;97612.22;;;6.25;70.81
70589;BME280;58152;49.202;18.744;2022-12-05T06:19:39;97615.63;;;6.27;70.76
70589;BME280;58152;49.202;18.744;2022-12-05T06:22:04;97613.97;;;6.25;70.99
70589;BME280;58152;49.202;18.744;2022-12-05T06:24:30;97617.44;;;6.25;70.93
70589;BME280;58152;49.202;18.744;2022-12-05T06:26:55;97620.81;;;6.29;71.11
70589;BME280;58152;49.202;18.744;2022-12-05T06:29:21;97625.13;;;6.30;70.91
70589;BME280;58152;49.202;18.744;2022-12-05T06:31:46;97623.34;;;6.32;70.73
70589;BME280;58152;49.202;18.744;2022-12-05T06:34:12;97619.91;;;6.30;71.04
70589;BME280;58152;49.202;18.744;2022-12-05T06:36:37;97635.44;;;6.34;70.88
70589;BME280;58152;49.202;18.744;2022-12-05T06:39:03;97628.47;;;6.35;71.09
70589;BME280;58152;49.202;18.744;2022-12-05T06:41:29;97630.31;;;6.31;70.96
70589;BME280;58152;49.202;18.744;2022-12-05T06:43:56;97623.31;;;6.33;70.94
70589;BME280;58152;49.202;18.744;2022-12-05T06:46:23;97621.56;;;6.34;70.83
70589;BME280;58152;49.202;18.744;2022-12-05T06:48:54;97628.44;;;6.36;70.91
70589;BME280;58152;49.202;18.744;2022-12-05T06:51:19;97629.38;;;6.34;70.72
70589;BME280;58152;49.202;18.744;2022-12-05T06:53:45;97626.72;;;6.37;70.46
70589;BME280;58152;49.202;18.744;2022-12-05T06:56:13;97638.00;;;6.36;70.97
70589;BME280;58152;49.202;18.744;2022-12-05T06:58:41;97634.53;;;6.37;71.06
70589;BME280;58152;49.202;18.744;2022-12-05T07:01:14;97631.94;;;6.35;70.94
70589;BME280;58152;49.202;18.744;2022-12-05T07:03:59;97638.91;;;6.35;70.64
70589;BME280;58152;49.202;18.744;2022-12-05T07:06:25;97652.72;;;6.39;71.07
70589;BME280;58152;49.202;18.744;2022-12-05T07:08:51;97648.47;;;6.34;70.91
70589;BME280;58152;49.202;18.744;2022-12-05T07:11:17;97643.09;;;6.41;70.80
70589;BME280;58152;49.202;18.744;2022-12-05T07:13:42;97637.13;;;6.37;71.18
70589;BME280;58152;49.202;18.744;2022-12-05T07:16:08;97655.22;;;6.43;70.97
70589;BME280;58152;49.202;18.744;2022-12-05T07:18:34;97656.94;;;6.44;71.37
70589;BME280;58152;49.202;18.744;2022-12-05T07:21:03;97658.47;;;6.53;71.73
70589;BME280;58152;49.202;18.744;2022-12-05T07:23:29;97649.56;;;6.61;71.12
70589;BME280;58152;49.202;18.744;2022-12-05T07:25:55;97659.88;;;6.66;70.85
70589;BME280;58152;49.202;18.744;2022-12-05T07:28:22;97668.50;;;6.70;70.65
70589;BME280;58152;49.202;18.744;2022-12-05T07:30:47;97659.88;;;6.66;70.74
70589;BME280;58152;49.202;18.744;2022-12-05T07:33:13;97665.13;;;6.65;70.69
70589;BME280;58152;49.202;18.744;2022-12-05T07:35:38;97668.56;;;6.67;70.53
70589;BME280;58152;49.202;18.744;2022-12-05T07:38:04;97671.16;;;6.67;70.75
70589;BME280;58152;49.202;18.744;2022-12-05T07:40:29;97671.09;;;6.70;70.59
70589;BME280;58152;49.202;18.744;2022-12-05T07:42:54;97672.00;;;6.67;70.95
70589;BME280;58152;49.202;18.744;2022-12-05T07:45:20;97672.63;;;6.77;71.37
70589;BME280;58152;49.202;18.744;2022-12-05T07:47:46;97662.09;;;6.81;71.18
70589;BME280;58152;49.202;18.744;2022-12-05T07:50:12;97659.28;;;6.89;70.61
70589;BME280;58152;49.202;18.744;2022-12-05T07:52:38;97669.59;;;6.94;70.67
70589;BME280;58152;49.202;18.744;2022-12-05T07:55:04;97667.06;;;6.92;70.78
70589;BME280;58152;49.202;18.744;2022-12-05T07:57:30;97668.75;;;6.93;70.44
70589;BME280;58152;49.202;18.744;2022-12-05T07:59:55;97680.03;;;6.94;70.96
70589;BME280;58152;49.202;18.744;2022-12-05T08:02:21;97674.91;;;6.91;70.70
70589;BME280;58152;49.202;18.744;2022-12-05T08:04:47;97680.91;;;6.94;70.49
70589;BME280;58152;49.202;18.744;2022-12-05T08:07:13;97690.47;;;6.94;70.74
70589;BME280;58152;49.202;18.744;2022-12-05T08:09:38;97692.28;;;6.90;71.14
70589;BME280;58152;49.202;18.744;2022-12-05T08:12:04;97692.25;;;6.92;70.59
70589;BME280;58152;49.202;18.744;2022-12-05T08:14:29;97703.47;;;6.95;70.96
70589;BME280;58152;49.202;18.744;2022-12-05T08:16:55;97694.00;;;6.91;70.69
70589;BME280;58152;49.202;18.744;2022-12-05T08:19:20;97691.31;;;6.94;70.46
70589;BME280;58152;49.202;18.744;2022-12-05T08:21:46;97686.03;;;6.97;71.19
70589;BME280;58152;49.202;18.744;2022-12-05T08:24:12;97704.22;;;7.00;70.45
70589;BME280;58152;49.202;18.744;2022-12-05T08:26:46;97678.94;;;7.02;70.46
70589;BME280;58152;49.202;18.744;2022-12-05T08:29:13;97700.44;;;7.12;70.33
70589;BME280;58152;49.202;18.744;2022-12-05T08:31:44;97693.34;;;7.17;70.40
70589;BME280;58152;49.202;18.744;2022-12-05T08:34:12;97697.66;;;7.18;70.08
70589;BME280;58152;49.202;18.744;2022-12-05T08:36:38;97695.88;;;7.20;70.45
70589;BME280;58152;49.202;18.744;2022-12-05T08:39:05;97692.06;;;7.32;71.24
70589;BME280;58152;49.202;18.744;2022-12-05T08:41:32;97690.16;;;7.38;70.36
70589;BME280;58152;49.202;18.744;2022-12-05T08:44:02;97698.63;;;7.47;70.63
70589;BME280;58152;49.202;18.744;2022-12-05T08:46:33;97691.69;;;7.46;70.39
70589;BME280;58152;49.202;18.744;2022-12-05T08:49:01;97689.06;;;7.47;70.12
70589;BME280;58152;49.202;18.744;2022-12-05T08:51:28;97684.63;;;7.49;70.30
70589;BME280;58152;49.202;18.744;2022-12-05T08:53:56;97680.28;;;7.50;69.71
70589;BME280;58152;49.202;18.744;2022-12-05T08:56:25;97692.22;;;7.58;70.32
70589;BME280;58152;49.202;18.744;2022-12-05T08:58:50;97684.56;;;7.52;70.10
70589;BME280;58152;49.202;18.744;2022-12-05T09:01:19;97693.03;;;7.60;70.13
70589;BME280;58152;49.202;18.744;2022-12-05T09:03:45;97687.84;;;7.59;69.77
70589;BME280;58152;49.202;18.744;2022-12-05T09:06:16;97696.66;;;7.56;69.46
70589;BME280;58152;49.202;18.744;2022-12-05T09:08:42;97692.16;;;7.61;70.14
70589;BME280;58152;49.202;18.744;2022-12-05T09:11:13;97692.22;;;7.58;70.00
70589;BME280;58152;49.202;18.744;2022-12-05T09:13:39;97686.16;;;7.58;69.89
70589;BME280;58152;49.202;18.744;2022-12-05T09:16:10;97700.72;;;7.65;70.08
70589;BME280;58152;49.202;18.744;2022-12-05T09:18:36;97696.41;;;7.64;70.12
70589;BME280;58152;49.202;18.744;2022-12-05T09:21:19;97701.50;;;7.69;69.25
70589;BME280;58152;49.202;18.744;2022-12-05T09:23:46;97698.09;;;7.67;69.71
70589;BME280;58152;49.202;18.744;2022-12-05T09:26:15;97697.97;;;7.71;69.81
70589;BME280;58152;49.202;18.744;2022-12-05T09:28:43;97683.28;;;7.67;69.83
70589;BME280;58152;49.202;18.744;2022-12-05T09:31:14;97698.69;;;7.76;69.47
70589;BME280;58152;49.202;18.744;2022-12-05T09:33:40;97671.88;;;7.70;69.79
70589;BME280;58152;49.202;18.744;2022-12-05T09:36:29;97688.03;;;7.84;69.34
70589;BME280;58152;49.202;18.744;2022-12-05T09:38:59;97671.44;;;7.85;69.26
70589;BME280;58152;49.202;18.744;2022-12-05T09:47:08;97672.53;;;8.06;68.92
70589;BME280;58152;49.202;18.744;2022-12-05T09:49:48;97656.16;;;8.01;68.75
70589;BME280;58152;49.202;18.744;2022-12-05T09:52:36;97663.75;;;8.08;68.41
70589;BME280;58152;49.202;18.744;2022-12-05T09:55:14;97655.94;;;8.08;68.82
70589;BME280;58152;49.202;18.744;2022-12-05T09:57:59;97649.00;;;8.07;68.21
70589;BME280;58152;49.202;18.744;2022-12-05T10:00:28;97649.84;;;8.08;68.46
70589;BME280;58152;49.202;18.744;2022-12-05T10:03:36;97637.25;;;8.21;68.08
70589;BME280;58152;49.202;18.744;2022-12-05T10:06:23;97627.81;;;8.45;68.03
70589;BME280;58152;49.202;18.744;2022-12-05T10:14:46;97639.03;;;9.25;67.00
70589;BME280;58152;49.202;18.744;2022-12-05T10:17:29;97637.19;;;9.52;66.90
70589;BME280;58152;49.202;18.744;2022-12-05T10:19:58;97641.53;;;9.76;66.29
70589;BME280;58152;49.202;18.744;2022-12-05T10:22:34;97650.16;;;10.02;65.65
70589;BME280;58152;49.202;18.744;2022-12-05T10:25:03;97648.34;;;10.27;65.42
70589;BME280;58152;49.202;18.744;2022-12-05T10:27:41;97649.78;;;10.56;64.05
70589;BME280;58152;49.202;18.744;2022-12-05T10:30:18;97638.63;;;10.73;63.30
70589;BME280;58152;49.202;18.744;2022-12-05T10:32:55;97640.84;;;10.82;63.74
70589;BME280;58152;49.202;18.744;2022-12-05T10:35:24;97636.97;;;11.11;63.57
70589;BME280;58152;49.202;18.744;2022-12-05T10:37:59;97639.00;;;11.45;62.79
70589;BME280;58152;49.202;18.744;2022-12-05T10:40:37;97631.16;;;11.64;61.29
70589;BME280;58152;49.202;18.744;2022-12-05T10:43:04;97625.84;;;11.85;60.86
70589;BME280;58152;49.202;18.744;2022-12-05T10:45:43;97640.50;;;12.09;60.30
70589;BME280;58152;49.202;18.744;2022-12-05T10:48:12;97625.78;;;12.24;60.17
70589;BME280;58152;49.202;18.744;2022-12-05T10:50:46;97625.25;;;12.35;59.34
70589;BME280;58152;49.202;18.744;2022-12-05T10:53:23;97624.06;;;12.42;58.49
70589;BME280;58152;49.202;18.744;2022-12-05T10:55:50;97635.75;;;12.54;58.25
70589;BME280;58152;49.202;18.744;2022-12-05T10:58:27;97626.56;;;12.62;58.45
70589;BME280;58152;49.202;18.744;2022-12-05T11:01:15;97639.75;;;12.97;56.83
70589;BME280;58152;49.202;18.744;2022-12-05T11:03:42;97622.56;;;13.07;57.46
70589;BME280;58152;49.202;18.744;2022-12-05T11:06:15;97642.72;;;13.26;56.62
70589;BME280;58152;49.202;18.744;2022-12-05T11:08:42;97619.53;;;12.80;57.88
70589;BME280;58152;49.202;18.744;2022-12-05T11:11:27;97641.91;;;12.35;58.16
70589;BME280;58152;49.202;18.744;2022-12-05T11:14:02;97633.31;;;11.94;59.15
70589;BME280;58152;49.202;18.744;2022-12-05T11:16:31;97625.31;;;11.58;59.71
70589;BME280;58152;49.202;18.744;2022-12-05T11:21:52;97614.47;;;11.06;60.60
70589;BME280;58152;49.202;18.744;2022-12-05T11:24:24;97617.56;;;10.95;60.49
70589;BME280;58152;49.202;18.744;2022-12-05T11:26:51;97609.09;;;10.88;61.18
70589;BME280;58152;49.202;18.744;2022-12-05T11:29:32;97605.16;;;10.99;59.95
70589;BME280;58152;49.202;18.744;2022-12-05T11:32:04;97601.34;;;11.84;59.14
70589;BME280;58152;49.202;18.744;2022-12-05T11:35:03;97606.78;;;12.54;57.37
70589;BME280;58152;49.202;18.744;2022-12-05T11:37:52;97580.31;;;13.09;57.02
70589;BME280;58152;49.202;18.744;2022-12-05T11:41:07;97588.34;;;13.40;54.58
70589;BME280;58152;49.202;18.744;2022-12-05T11:55:19;97586.28;;;13.12;55.05
70589;BME280;58152;49.202;18.744;2022-12-05T12:01:05;97580.88;;;13.97;54.98
70589;BME280;58152;49.202;18.744;2022-12-05T12:06:44;97568.59;;;14.28;53.64
70589;BME280;58152;49.202;18.744;2022-12-05T12:15:08;97575.97;;;15.13;50.69
70589;BME280;58152;49.202;18.744;2022-12-05T12:17:50;97572.28;;;15.30;52.08
70589;BME280;58152;49.202;18.744;2022-12-05T12:33:35;97572.00;;;13.83;51.69
70589;BME280;58152;49.202;18.744;2022-12-05T12:50:27;97569.59;;;11.89;55.42
70589;BME280;58152;49.202;18.744;2022-12-05T12:55:49;97579.66;;;11.60;56.98
70589;BME280;58152;49.202;18.744;2022-12-05T13:04:06;97586.28;;;11.30;57.30
70589;BME280;58152;49.202;18.744;2022-12-05T13:09:43;97582.50;;;11.16;57.79
70589;BME280;58152;49.202;18.744;2022-12-05T13:12:16;97569.63;;;11.10;58.66
70589;BME280;58152;49.202;18.744;2022-12-05T13:14:52;97580.16;;;11.10;58.69
70589;BME280;58152;49.202;18.744;2022-12-05T13:17:21;97571.25;;;11.13;58.47
70589;BME280;58152;49.202;18.744;2022-12-05T13:19:52;97571.06;;;11.17;58.85
70589;BME280;58152;49.202;18.744;2022-12-05T13:22:20;97561.69;;;11.12;58.41
70589;BME280;58152;49.202;18.744;2022-12-05T13:24:51;97560.00;;;11.11;58.96
70589;BME280;58152;49.202;18.744;2022-12-05T13:27:19;97554.66;;;11.12;58.87
70589;BME280;58152;49.202;18.744;2022-12-05T13:34:52;97552.09;;;11.11;59.08
70589;BME280;58152;49.202;18.744;2022-12-05T13:37:22;97569.31;;;11.18;59.16
70589;BME280;58152;49.202;18.744;2022-12-05T13:40:28;97574.56;;;11.18;58.03
70589;BME280;58152;49.202;18.744;2022-12-05T13:43:19;97561.88;;;11.07;58.95
70589;BME280;58152;49.202;18.744;2022-12-05T13:46:07;97580.22;;;11.09;58.63
70589;BME280;58152;49.202;18.744;2022-12-05T13:48:41;97569.03;;;11.04;58.83
70589;BME280;58152;49.202;18.744;2022-12-05T13:54:23;97564.91;;;10.98;59.24
70589;BME280;58152;49.202;18.744;2022-12-05T14:00:18;97564.34;;;10.91;58.93
70589;BME280;58152;49.202;18.744;2022-12-05T14:07:50;97572.47;;;10.85;59.98
70589;BME280;58152;49.202;18.744;2022-12-05T14:11:04;97567.22;;;10.85;59.69
70589;BME280;58152;49.202;18.744;2022-12-05T14:15:40;97565.72;;;10.80;59.68
70589;BME280;58152;49.202;18.744;2022-12-05T14:21:08;97553.91;;;10.69;59.86
70589;BME280;58152;49.202;18.744;2022-12-05T14:24:53;97557.47;;;10.68;60.24
70589;BME280;58152;49.202;18.744;2022-12-05T14:29:35;97562.75;;;10.67;60.29
70589;BME280;58152;49.202;18.744;2022-12-05T14:32:22;97552.44;;;10.62;60.25
70589;BME280;58152;49.202;18.744;2022-12-05T14:37:51;97561.25;;;10.61;60.18
70589;BME280;58152;49.202;18.744;2022-12-05T14:43:30;97568.47;;;10.56;60.55
70589;BME280;58152;49.202;18.744;2022-12-05T14:46:18;97553.03;;;10.49;60.49
70589;BME280;58152;49.202;18.744;2022-12-05T14:48:50;97556.53;;;10.49;60.57
70589;BME280;58152;49.202;18.744;2022-12-05T14:52:30;97556.56;;;10.48;60.72
70589;BME280;58152;49.202;18.744;2022-12-05T14:55:04;97547.97;;;10.44;60.92
70589;BME280;58152;49.202;18.744;2022-12-05T14:57:43;97553.38;;;10.41;60.53
70589;BME280;58152;49.202;18.744;2022-12-05T15:00:18;97557.75;;;10.40;61.01
70589;BME280;58152;49.202;18.744;2022-12-05T15:02:45;97549.19;;;10.35;60.54
70589;BME280;58152;49.202;18.744;2022-12-05T15:05:20;97542.34;;;10.33;61.08
70589;BME280;58152;49.202;18.744;2022-12-05T15:07:50;97543.25;;;10.32;60.72
70589;BME280;58152;49.202;18.744;2022-12-05T15:10:36;97537.09;;;10.33;61.00
70589;BME280;58152;49.202;18.744;2022-12-05T15:13:15;97541.34;;;10.35;61.13
70589;BME280;58152;49.202;18.744;2022-12-05T15:15:45;97534.53;;;10.31;61.08
70589;BME280;58152;49.202;18.744;2022-12-05T15:18:22;97537.81;;;10.36;60.79
70589;BME280;58152;49.202;18.744;2022-12-05T15:27:14;97531.91;;;10.31;61.25
70589;BME280;58152;49.202;18.744;2022-12-05T15:29:41;97516.47;;;10.24;61.34
70589;BME280;58152;49.202;18.744;2022-12-05T15:32:40;97530.16;;;10.32;61.24
70589;BME280;58152;49.202;18.744;2022-12-05T15:35:11;97519.88;;;10.26;61.64
70589;BME280;58152;49.202;18.744;2022-12-05T15:37:55;97521.69;;;10.24;61.88
70589;BME280;58152;49.202;18.744;2022-12-05T15:40:23;97522.59;;;10.24;61.74
70589;BME280;58152;49.202;18.744;2022-12-05T15:42:56;97524.44;;;10.21;61.41
70589;BME280;58152;49.202;18.744;2022-12-05T15:45:26;97521.09;;;10.17;61.59
70589;BME280;58152;49.202;18.744;2022-12-05T15:50:53;97527.13;;;10.19;61.99
70589;BME280;58152;49.202;18.744;2022-12-05T15:53:35;97534.94;;;10.21;61.83
70589;BME280;58152;49.202;18.744;2022-12-05T15:56:05;97536.81;;;10.17;61.76
70589;BME280;58152;49.202;18.744;2022-12-05T15:58:37;97532.56;;;10.14;61.91
70589;BME280;58152;49.202;18.744;2022-12-05T16:08:58;97516.28;;;10.06;61.69
70589;BME280;58152;49.202;18.744;2022-12-05T16:11:27;97518.91;;;10.06;61.95